createdAt,value
2018-12-17T00:00:07.980Z,83.22
2018-12-17T00:02:38.868Z,82.58
2018-12-17T00:05:09.830Z,82.75
2018-12-17T00:07:40.717Z,83.19
2018-12-17T00:10:09.984Z,83.15
2018-12-17T00:12:39.153Z,82.79
2018-12-17T00:15:08.964Z,82.55
2018-12-17T00:17:37.966Z,82.52
2018-12-17T00:20:08.070Z,83.09
2018-12-17T00:22:36.977Z,83.02
2018-12-17T00:25:06.568Z,82.32
2018-12-17T00:27:35.560Z,82.07
2018-12-17T00:30:05.383Z,82.43
2018-12-17T00:32:34.320Z,82.27
2018-12-17T00:35:03.878Z,82.28
2018-12-17T00:37:32.785Z,82.14
2018-12-17T00:40:02.200Z,82.52
2018-12-17T00:42:31.374Z,82.21
2018-12-17T00:45:00.468Z,82.42
2018-12-17T00:47:29.340Z,81.77
2018-12-17T00:49:58.296Z,82.27
2018-12-17T00:52:27.584Z,81.97
2018-12-17T00:54:57.432Z,82.53
2018-12-17T00:57:26.452Z,82.06
2018-12-17T00:59:55.276Z,82.63
2018-12-17T01:02:24.227Z,83.04
2018-12-17T01:04:53.073Z,82.91
2018-12-17T01:07:26.065Z,82.88
2018-12-17T01:09:54.898Z,83.30
2018-12-17T01:12:23.772Z,82.87
2018-12-17T01:14:52.668Z,82.96
2018-12-17T01:17:21.564Z,82.90
2018-12-17T01:19:50.413Z,82.93
2018-12-17T01:22:19.335Z,83.69
2018-12-17T01:24:48.232Z,83.49
2018-12-17T01:27:17.129Z,83.31
2018-12-17T01:29:46.012Z,83.62
2018-12-17T01:32:15.128Z,83.64
2018-12-17T01:34:45.041Z,82.94
2018-12-17T01:37:13.901Z,82.72
2018-12-17T01:39:42.794Z,82.85
2018-12-17T01:42:11.785Z,83.48
2018-12-17T01:44:41.693Z,83.14
2018-12-17T01:47:10.599Z,83.12
2018-12-17T01:49:39.491Z,83.44
2018-12-17T01:52:08.373Z,83.64
2018-12-17T01:54:37.977Z,83.02
2018-12-17T01:57:06.879Z,83.20
2018-12-17T01:59:35.861Z,83.62
2018-12-17T02:02:04.809Z,83.60
2018-12-17T02:04:33.665Z,83.16
2018-12-17T02:07:02.553Z,83.07
2018-12-17T02:09:31.360Z,83.30
2018-12-17T02:12:00.317Z,83.15
2018-12-17T02:14:29.204Z,82.86
2018-12-17T02:16:58.154Z,83.08
2018-12-17T02:19:26.983Z,83.59
2018-12-17T02:21:55.882Z,82.82
2018-12-17T02:24:24.762Z,83.80
2018-12-17T02:26:53.633Z,83.42
2018-12-17T02:29:22.586Z,83.01
2018-12-17T02:31:51.418Z,83.33
2018-12-17T02:34:20.397Z,83.15
2018-12-17T02:36:49.422Z,83.41
2018-12-17T02:39:18.319Z,83.31
2018-12-17T02:41:47.212Z,84.30
2018-12-17T02:44:16.480Z,84.09
2018-12-17T02:46:45.293Z,84.06
2018-12-17T02:49:14.504Z,83.92
2018-12-17T02:51:43.461Z,84.01
2018-12-17T02:54:12.464Z,83.35
2018-12-17T02:56:41.299Z,83.67
2018-12-17T02:59:10.927Z,83.33
2018-12-17T03:01:39.769Z,83.55
2018-12-17T03:04:08.750Z,84.29
2018-12-17T03:06:37.636Z,84.18
2018-12-17T03:09:07.800Z,84.17
2018-12-17T03:11:38.609Z,84.95
2018-12-17T03:14:07.545Z,84.69
2018-12-17T03:16:36.624Z,84.16
2018-12-17T03:19:05.917Z,84.61
2018-12-17T03:21:35.304Z,84.64
2018-12-17T03:24:04.479Z,84.58
2018-12-17T03:26:34.880Z,85.19
2018-12-17T03:29:03.911Z,84.18
2018-12-17T03:31:33.037Z,83.87
2018-12-17T03:34:02.122Z,83.68
2018-12-17T03:36:30.996Z,84.25
2018-12-17T03:38:59.872Z,83.57
2018-12-17T03:41:28.772Z,84.02
2018-12-17T03:43:57.668Z,83.38
2018-12-17T03:46:26.553Z,83.78
2018-12-17T03:48:55.452Z,83.24
2018-12-17T03:51:24.353Z,83.60
2018-12-17T03:53:53.212Z,83.33
2018-12-17T03:56:22.109Z,82.92
2018-12-17T03:58:51.006Z,83.77
2018-12-17T04:01:19.911Z,83.74
2018-12-17T04:03:49.091Z,83.57
2018-12-17T04:06:17.961Z,83.73
2018-12-17T04:08:46.875Z,83.92
2018-12-17T04:11:15.753Z,83.62
2018-12-17T04:13:44.610Z,83.12
2018-12-17T04:16:13.433Z,83.59
2018-12-17T04:18:42.320Z,83.26
2018-12-17T04:21:11.154Z,83.72
2018-12-17T04:23:39.992Z,84.22
2018-12-17T04:26:10.876Z,83.71
2018-12-17T04:28:39.731Z,83.42
2018-12-17T04:31:11.795Z,83.89
2018-12-17T04:33:40.769Z,84.20
2018-12-17T04:36:09.700Z,84.03
2018-12-17T04:38:38.678Z,83.67
2018-12-17T04:41:07.702Z,84.34
2018-12-17T04:43:36.662Z,84.25
2018-12-17T04:46:07.206Z,84.21
2018-12-17T04:48:36.193Z,84.26
2018-12-17T04:51:06.568Z,84.08
2018-12-17T04:53:35.420Z,84.40
2018-12-17T04:56:04.277Z,84.31
2018-12-17T04:58:33.093Z,84.78
2018-12-17T05:01:02.105Z,84.15
2018-12-17T05:03:32.116Z,84.02
2018-12-17T05:06:00.975Z,83.99
2018-12-17T05:08:29.855Z,84.24
2018-12-17T05:10:58.753Z,84.55
2018-12-17T05:13:27.610Z,84.64
2018-12-17T05:15:56.536Z,84.53
2018-12-17T05:18:25.416Z,85.07
2018-12-17T05:20:54.325Z,84.25
2018-12-17T05:23:23.202Z,84.74
2018-12-17T05:25:52.105Z,84.57
2018-12-17T05:28:20.984Z,84.59
2018-12-17T05:30:49.876Z,84.58
2018-12-17T05:33:18.908Z,84.58
2018-12-17T05:35:47.789Z,84.12
2018-12-17T05:38:16.655Z,84.77
2018-12-17T05:40:45.546Z,85.30
2018-12-17T05:43:14.436Z,85.02
2018-12-17T05:45:43.345Z,85.33
2018-12-17T05:48:12.277Z,84.37
2018-12-17T05:50:41.485Z,84.67
2018-12-17T05:53:10.348Z,85.05
2018-12-17T05:55:39.221Z,85.04
2018-12-17T05:58:08.177Z,85.28
2018-12-17T06:00:37.069Z,84.90
2018-12-17T06:03:06.308Z,85.00
2018-12-17T06:05:36.088Z,85.04
2018-12-17T06:08:05.000Z,85.61
2018-12-17T06:10:34.985Z,85.54
2018-12-17T06:13:04.387Z,85.62
2018-12-17T06:15:33.288Z,85.74
2018-12-17T06:18:02.184Z,85.56
2018-12-17T06:20:31.062Z,85.34
2018-12-17T06:22:59.984Z,85.57
2018-12-17T06:25:28.966Z,86.55
2018-12-17T06:27:57.957Z,86.55
2018-12-17T06:30:26.829Z,86.44
2018-12-17T06:32:55.682Z,86.67
2018-12-17T06:35:24.534Z,86.46
2018-12-17T06:37:53.984Z,86.09
2018-12-17T06:40:22.857Z,87.51
2018-12-17T06:42:51.713Z,86.54
2018-12-17T06:45:20.581Z,86.58
2018-12-17T06:47:49.489Z,87.41
2018-12-17T06:50:18.348Z,87.53
2018-12-17T06:52:47.390Z,87.11
2018-12-17T06:55:16.240Z,87.51
2018-12-17T06:57:45.480Z,87.69
2018-12-17T07:00:15.365Z,87.87
2018-12-17T07:02:44.331Z,88.03
2018-12-17T07:05:13.225Z,87.99
2018-12-17T07:07:42.112Z,87.57
2018-12-17T07:10:10.949Z,87.80
2018-12-17T07:12:39.904Z,88.14
2018-12-17T07:15:08.797Z,87.79
2018-12-17T07:17:37.700Z,88.46
2018-12-17T07:20:07.073Z,87.88
2018-12-17T07:22:36.014Z,87.79
2018-12-17T07:25:05.308Z,87.80
2018-12-17T07:27:34.172Z,88.36
2018-12-17T07:30:03.373Z,88.24
2018-12-17T07:32:32.364Z,88.57
2018-12-17T07:35:01.307Z,88.37
2018-12-17T07:37:30.449Z,88.31
2018-12-17T07:39:59.333Z,89.10
2018-12-17T07:42:28.232Z,88.90
2018-12-17T07:44:57.216Z,88.99
2018-12-17T07:47:26.116Z,88.79
2018-12-17T07:49:55.715Z,88.26
2018-12-17T07:52:24.680Z,89.07
2018-12-17T07:54:53.616Z,88.84
2018-12-17T07:57:22.543Z,88.69
2018-12-17T07:59:56.682Z,88.48
2018-12-17T08:02:22.229Z,88.73
2018-12-17T08:04:51.084Z,89.29
2018-12-17T08:07:20.005Z,88.82
2018-12-17T08:09:48.876Z,88.47
2018-12-17T08:12:17.776Z,89.18
2018-12-17T08:14:46.673Z,88.93
2018-12-17T08:17:15.733Z,89.11
2018-12-17T08:19:44.784Z,88.97
2018-12-17T08:22:13.692Z,89.49
2018-12-17T08:24:42.793Z,89.45
2018-12-17T08:27:11.636Z,88.91
2018-12-17T08:29:40.646Z,88.92
2018-12-17T08:32:10.450Z,88.70
2018-12-17T08:34:39.255Z,89.50
2018-12-17T08:37:08.123Z,89.37
2018-12-17T08:39:37.002Z,88.77
2018-12-17T08:42:06.148Z,89.60
2018-12-17T08:44:35.089Z,89.75
2018-12-17T08:47:04.214Z,89.17
2018-12-17T08:49:33.036Z,88.77
2018-12-17T08:52:02.896Z,88.86
2018-12-17T08:54:31.789Z,89.44
2018-12-17T08:57:00.787Z,89.41
2018-12-17T08:59:29.700Z,89.16
2018-12-17T09:01:58.558Z,88.77
2018-12-17T09:04:27.440Z,88.85
2018-12-17T09:06:56.381Z,89.76
2018-12-17T09:12:22.404Z,88.65
2018-12-17T09:14:51.265Z,88.84
2018-12-17T09:17:20.276Z,88.81
2018-12-17T09:19:49.144Z,89.37
2018-12-17T09:22:18.032Z,89.07
2018-12-17T09:24:46.941Z,88.60
2018-12-17T09:27:15.809Z,89.09
2018-12-17T09:29:44.704Z,88.80
2018-12-17T09:32:13.700Z,89.00
2018-12-17T09:34:42.582Z,88.73
2018-12-17T09:37:11.633Z,89.02
2018-12-17T09:39:40.477Z,89.02
2018-12-17T09:42:09.305Z,89.20
2018-12-17T09:44:38.377Z,88.95
2018-12-17T09:47:07.250Z,88.65
2018-12-17T09:49:36.277Z,89.18
2018-12-17T09:52:05.638Z,89.31
2018-12-17T09:54:34.540Z,88.49
2018-12-17T09:57:03.528Z,88.45
2018-12-17T09:59:32.497Z,88.67
2018-12-17T10:02:01.407Z,87.92
2018-12-17T10:04:30.324Z,88.68
2018-12-17T10:06:59.197Z,88.21
2018-12-17T10:09:28.024Z,88.30
2018-12-17T10:11:56.856Z,88.77
2018-12-17T10:14:25.811Z,88.19
2018-12-17T10:16:54.645Z,87.93
2018-12-17T10:19:23.629Z,87.92
2018-12-17T10:21:52.471Z,88.26
2018-12-17T10:24:25.249Z,88.25
2018-12-17T10:26:54.206Z,87.89
2018-12-17T10:29:23.200Z,88.22
2018-12-17T10:31:52.175Z,88.60
2018-12-17T10:34:21.084Z,87.90
2018-12-17T10:36:49.957Z,88.66
2018-12-17T10:39:18.866Z,88.31
2018-12-17T10:41:47.744Z,87.96
2018-12-17T10:44:18.613Z,88.25
2018-12-17T10:46:47.473Z,88.03
2018-12-17T10:49:16.569Z,88.34
2018-12-17T10:51:45.420Z,87.76
2018-12-17T10:54:14.265Z,87.68
2018-12-17T10:56:43.361Z,87.54
2018-12-17T10:59:12.242Z,88.34
2018-12-17T11:01:46.377Z,88.99
2018-12-17T11:04:21.305Z,88.34
2018-12-17T11:06:50.173Z,88.43
2018-12-17T11:09:19.061Z,88.85
2018-12-17T11:11:47.949Z,88.49
2018-12-17T11:14:16.856Z,88.44
2018-12-17T11:16:45.729Z,88.38
2018-12-17T11:19:14.749Z,88.48
2018-12-17T11:21:43.720Z,88.43
2018-12-17T11:24:12.965Z,88.41
2018-12-17T11:26:41.801Z,88.17
2018-12-17T11:29:10.889Z,88.21
2018-12-17T11:31:39.809Z,87.89
2018-12-17T11:34:08.685Z,86.90
2018-12-17T11:36:38.256Z,87.59
2018-12-17T11:39:10.086Z,87.59
2018-12-17T11:41:40.906Z,87.04
2018-12-17T11:44:09.760Z,86.77
2018-12-17T11:46:38.772Z,87.03
2018-12-17T11:49:07.772Z,87.78
2018-12-17T11:51:36.652Z,87.93
2018-12-17T11:54:05.656Z,88.05
2018-12-17T11:57:50.004Z,88.54
2018-12-17T12:00:21.738Z,88.30
2018-12-17T12:02:50.909Z,87.51
2018-12-17T12:05:19.789Z,87.87
2018-12-17T12:07:50.272Z,87.79
2018-12-17T12:10:21.234Z,87.86
2018-12-17T12:12:50.317Z,87.28
2018-12-17T12:15:19.297Z,86.90
2018-12-17T12:17:48.205Z,86.80
2018-12-17T12:20:17.221Z,86.47
2018-12-17T12:22:46.168Z,86.31
2018-12-17T12:25:15.068Z,85.40
2018-12-17T12:27:43.949Z,83.99
2018-12-17T12:30:13.368Z,83.43
2018-12-17T12:32:42.269Z,83.34
2018-12-17T12:35:12.418Z,80.20
2018-12-17T12:37:41.253Z,80.01
2018-12-17T12:40:10.360Z,80.34
2018-12-17T12:42:39.243Z,79.13
2018-12-17T12:45:08.245Z,80.21
2018-12-17T12:47:37.166Z,80.67
2018-12-17T12:50:07.334Z,80.89
2018-12-17T12:52:36.343Z,81.10
2018-12-17T12:55:06.220Z,81.27
2018-12-17T12:57:36.174Z,82.06
2018-12-17T13:00:08.349Z,82.74
2018-12-17T13:02:37.333Z,82.93
2018-12-17T13:05:06.443Z,82.57
2018-12-17T13:07:35.621Z,82.90
2018-12-17T13:10:08.500Z,84.05
2018-12-17T13:12:37.405Z,84.29
2018-12-17T13:15:08.145Z,84.56
2018-12-17T13:17:37.525Z,84.46
2018-12-17T13:20:08.036Z,83.39
2018-12-17T13:22:37.347Z,83.69
2018-12-17T13:25:09.984Z,83.72
2018-12-17T13:27:39.352Z,83.95
2018-12-17T13:30:09.777Z,84.67
2018-12-17T13:32:38.757Z,83.47
2018-12-17T13:35:08.900Z,83.58
2018-12-17T13:37:37.775Z,84.08
2018-12-17T13:40:09.043Z,83.66
2018-12-17T13:42:38.120Z,84.09
2018-12-17T13:45:07.530Z,83.33
2018-12-17T13:47:36.509Z,82.82
2018-12-17T13:50:10.869Z,83.87
2018-12-17T13:52:46.189Z,83.83
2018-12-17T13:55:15.773Z,83.77
2018-12-17T13:57:44.663Z,84.07
2018-12-17T14:00:13.860Z,84.51
2018-12-17T14:02:43.580Z,84.18
2018-12-17T14:05:13.250Z,84.99
2018-12-17T14:07:42.182Z,84.70
2018-12-17T14:11:18.512Z,84.93
2018-12-17T14:13:47.433Z,85.46
2018-12-17T14:16:16.585Z,85.27
2018-12-17T14:18:51.086Z,85.56
2018-12-17T14:21:25.275Z,84.64
2018-12-17T14:23:54.158Z,84.40
2018-12-17T14:26:23.050Z,84.28
2018-12-17T14:28:51.880Z,83.76
2018-12-17T14:31:20.764Z,84.65
2018-12-17T14:33:49.701Z,83.44
2018-12-17T14:36:18.661Z,83.81
2018-12-17T14:38:47.592Z,83.63
2018-12-17T14:41:16.589Z,83.60
2018-12-17T14:43:45.469Z,84.05
2018-12-17T14:46:14.675Z,83.38
2018-12-17T14:48:43.596Z,83.96
2018-12-17T14:51:12.679Z,84.08
2018-12-17T14:53:42.592Z,83.42
2018-12-17T14:56:11.985Z,83.03
2018-12-17T14:58:44.512Z,83.31
2018-12-17T15:01:11.737Z,83.51
2018-12-17T15:03:40.616Z,82.82
2018-12-17T15:06:09.608Z,82.90
2018-12-17T15:08:38.494Z,82.93
2018-12-17T15:11:07.661Z,82.50
2018-12-17T15:13:36.638Z,82.96
2018-12-17T15:16:05.666Z,82.71
2018-12-17T15:18:34.597Z,83.04
2018-12-17T15:21:03.549Z,82.68
2018-12-17T15:23:32.559Z,82.90
2018-12-17T15:26:01.658Z,82.80
2018-12-17T15:28:30.563Z,83.14
2018-12-17T15:30:59.403Z,83.07
2018-12-17T15:33:28.429Z,83.42
2018-12-17T15:35:57.297Z,82.67
2018-12-17T15:38:26.200Z,83.29
2018-12-17T15:40:55.074Z,82.96
2018-12-17T15:43:24.031Z,82.74
2018-12-17T15:46:16.195Z,82.52
2018-12-17T15:58:08.941Z,82.98
2018-12-17T16:03:56.153Z,82.33
2018-12-17T16:06:26.396Z,82.00
2018-12-17T16:11:51.107Z,82.25
2018-12-17T16:14:28.651Z,82.64
2018-12-17T16:16:57.470Z,82.19
2018-12-17T16:22:45.546Z,81.99
2018-12-17T16:25:14.629Z,81.97
2018-12-17T16:27:43.520Z,82.72
2018-12-17T16:30:12.834Z,82.67
2018-12-17T16:32:41.745Z,82.05
2018-12-17T16:35:10.656Z,82.86
2018-12-17T16:37:39.501Z,82.15
2018-12-17T16:40:08.619Z,82.22
2018-12-17T16:42:37.589Z,81.98
2018-12-17T16:45:08.401Z,82.60
2018-12-17T16:47:37.311Z,82.07
2018-12-17T16:50:08.669Z,82.81
2018-12-17T16:52:37.549Z,82.04
2018-12-17T16:55:06.635Z,81.86
2018-12-17T16:57:35.516Z,81.87
2018-12-17T17:00:05.441Z,82.51
2018-12-17T17:02:35.280Z,82.64
2018-12-17T17:05:04.381Z,81.98
2018-12-17T17:07:33.277Z,81.87
2018-12-17T17:10:05.900Z,81.46
2018-12-17T17:12:35.223Z,81.65
2018-12-17T17:15:04.696Z,82.74
2018-12-17T17:17:33.705Z,82.86
2018-12-17T17:20:02.544Z,82.55
2018-12-17T17:22:31.589Z,82.79
2018-12-17T17:25:00.493Z,82.35
2018-12-17T17:27:29.412Z,82.41
2018-12-17T17:29:58.336Z,82.15
2018-12-17T17:32:27.104Z,82.65
2018-12-17T17:34:55.996Z,81.80
2018-12-17T17:37:25.302Z,82.49
2018-12-17T17:39:54.252Z,82.91
2018-12-17T17:42:23.114Z,81.90
2018-12-17T17:44:52.767Z,82.29
2018-12-17T17:47:21.746Z,82.21
2018-12-17T17:49:50.583Z,82.33
2018-12-17T17:52:19.841Z,82.52
2018-12-17T17:54:48.717Z,82.35
2018-12-17T17:57:17.605Z,82.88
2018-12-17T17:59:46.601Z,82.35
2018-12-17T18:02:18.730Z,82.76
2018-12-17T18:04:46.314Z,83.04
2018-12-17T18:07:15.234Z,83.08
2018-12-17T18:09:44.197Z,82.82
2018-12-17T18:12:13.072Z,83.18
2018-12-17T18:14:41.981Z,82.96
2018-12-17T18:17:10.865Z,83.54
2018-12-17T18:19:40.788Z,83.06
2018-12-17T18:22:09.665Z,83.32
2018-12-17T18:24:38.502Z,83.70
2018-12-17T18:27:07.345Z,82.81
2018-12-17T18:29:36.241Z,83.53
2018-12-17T18:32:05.253Z,83.15
2018-12-17T18:34:34.127Z,83.25
2018-12-17T18:37:03.086Z,84.21
2018-12-17T18:39:31.894Z,83.73
2018-12-17T18:42:00.797Z,84.26
2018-12-17T18:44:29.721Z,83.67
2018-12-17T18:46:58.620Z,83.11
2018-12-17T18:49:27.580Z,83.46
2018-12-17T18:51:56.485Z,83.67
2018-12-17T18:54:25.365Z,83.09
2018-12-17T18:56:54.388Z,82.49
2018-12-17T18:59:23.244Z,83.11
2018-12-17T19:01:52.102Z,82.56
2018-12-17T19:04:21.133Z,82.75
2018-12-17T19:06:49.984Z,82.99
2018-12-17T19:09:18.820Z,82.75
2018-12-17T19:11:47.872Z,82.68
2018-12-17T19:14:16.776Z,83.19
2018-12-17T19:16:46.081Z,83.20
2018-12-17T19:19:17.330Z,83.22
2018-12-17T19:21:46.217Z,83.35
2018-12-17T19:24:15.224Z,82.41
2018-12-17T19:26:44.220Z,83.16
2018-12-17T19:29:13.097Z,82.48
2018-12-17T19:31:42.122Z,83.26
2018-12-17T19:34:11.149Z,82.43
2018-12-17T19:36:39.989Z,82.92
2018-12-17T19:39:08.876Z,82.75
2018-12-17T19:41:39.712Z,83.07
2018-12-17T19:44:08.697Z,82.29
2018-12-17T19:46:37.626Z,82.69
2018-12-17T19:49:06.868Z,82.62
2018-12-17T19:51:35.778Z,83.15
2018-12-17T19:54:04.769Z,82.44
2018-12-17T19:56:33.864Z,82.90
2018-12-17T19:59:02.745Z,83.35
2018-12-17T20:01:31.801Z,82.85
2018-12-17T20:04:00.733Z,82.51
2018-12-17T20:06:30.453Z,82.88
2018-12-17T20:08:59.425Z,82.69
2018-12-17T20:11:28.348Z,83.03
2018-12-17T20:13:58.053Z,83.74
2018-12-17T20:16:26.929Z,83.99
2018-12-17T20:18:55.778Z,83.32
2018-12-17T20:21:24.593Z,83.67
2018-12-17T20:23:54.034Z,83.48
2018-12-17T20:26:22.908Z,84.04
2018-12-17T20:28:51.781Z,83.78
2018-12-17T20:31:20.707Z,83.56
2018-12-17T20:33:49.680Z,83.26
2018-12-17T20:36:18.741Z,83.60
2018-12-17T20:38:47.866Z,83.71
2018-12-17T20:41:16.684Z,84.02
2018-12-17T20:43:45.552Z,83.99
2018-12-17T20:46:14.936Z,84.56
2018-12-17T20:48:43.842Z,84.15
2018-12-17T20:51:12.724Z,84.49
2018-12-17T20:53:41.571Z,84.62
2018-12-17T20:59:09.317Z,84.26
2018-12-17T21:01:38.170Z,84.14
2018-12-17T21:04:07.012Z,84.00
2018-12-17T21:06:35.865Z,83.65
2018-12-17T21:09:07.846Z,83.20
2018-12-17T21:11:38.860Z,83.04
2018-12-17T21:14:07.762Z,83.70
2018-12-17T21:16:36.662Z,83.68
2018-12-17T21:19:05.750Z,83.27
2018-12-17T21:21:35.360Z,82.71
2018-12-17T21:24:05.051Z,82.55
2018-12-17T21:26:34.116Z,82.52
2018-12-17T21:29:03.067Z,82.98
2018-12-17T21:31:31.972Z,83.30
2018-12-17T21:34:00.973Z,83.21
2018-12-17T21:36:29.814Z,83.46
2018-12-17T21:38:58.696Z,83.74
2018-12-17T21:41:27.638Z,83.49
2018-12-17T21:43:56.573Z,83.83
2018-12-17T21:46:25.490Z,83.68
2018-12-17T21:48:54.425Z,83.78
2018-12-17T21:51:23.261Z,83.85
2018-12-17T21:53:52.167Z,84.17
2018-12-17T21:56:21.070Z,83.60
2018-12-17T21:58:51.332Z,84.09
2018-12-17T22:01:20.416Z,83.50
2018-12-17T22:03:49.449Z,84.62
2018-12-17T22:06:18.460Z,84.14
2018-12-17T22:08:47.309Z,84.09
2018-12-17T22:11:16.262Z,83.80
2018-12-17T22:13:46.250Z,83.26
2018-12-17T22:16:15.242Z,82.99
2018-12-17T22:18:44.472Z,82.93
2018-12-17T22:21:14.372Z,82.35
2018-12-17T22:23:44.069Z,82.35
2018-12-17T22:26:14.600Z,83.00
2018-12-17T22:28:43.572Z,82.40
2018-12-17T22:31:12.719Z,82.47
2018-12-17T22:33:41.630Z,81.89
2018-12-17T22:36:10.785Z,82.91
2018-12-17T22:38:40.042Z,82.35
2018-12-17T22:41:09.222Z,82.27
2018-12-17T22:43:38.243Z,82.91
2018-12-17T22:46:07.146Z,82.82
2018-12-17T22:48:36.029Z,81.97
2018-12-17T22:51:05.720Z,82.71
2018-12-17T22:53:34.738Z,82.85
2018-12-17T22:56:03.646Z,82.27
2018-12-17T22:58:32.533Z,82.74
2018-12-17T23:01:01.526Z,81.95
2018-12-17T23:03:32.333Z,82.22
2018-12-17T23:06:01.215Z,82.84
2018-12-17T23:08:31.542Z,81.75
2018-12-17T23:11:11.886Z,81.92
2018-12-17T23:13:52.125Z,82.48
2018-12-17T23:16:32.336Z,81.66
2018-12-17T23:19:00.340Z,81.61
2018-12-17T23:21:31.252Z,82.01
2018-12-17T23:24:02.076Z,82.06
2018-12-17T23:26:34.737Z,82.45
2018-12-17T23:29:04.445Z,82.54
2018-12-17T23:31:33.350Z,82.00
2018-12-17T23:34:02.652Z,81.91
2018-12-17T23:36:31.949Z,82.24
2018-12-17T23:39:00.849Z,81.44
2018-12-17T23:41:31.797Z,81.30
2018-12-17T23:44:00.713Z,81.77
2018-12-17T23:46:29.831Z,81.45
2018-12-17T23:48:58.961Z,81.81
2018-12-17T23:51:27.891Z,82.17
2018-12-17T23:53:56.850Z,81.69
2018-12-17T23:56:25.739Z,81.55
2018-12-17T23:58:54.786Z,81.45
